sensor_id;sensor_type;location;lat;lon;timestamp;P1;durP1;ratioP1;P2;durP2;ratioP2
12554;SDS011;6343;50.868;4.700;2023-03-23T00:02:37;3.17;;;2.40;;
12554;SDS011;6343;50.868;4.700;2023-03-23T00:05:07;4.07;;;2.80;;
12554;SDS011;6343;50.868;4.700;2023-03-23T00:07:33;4.77;;;2.50;;
12554;SDS011;6343;50.868;4.700;2023-03-23T00:10:00;3.10;;;2.40;;
12554;SDS011;6343;50.868;4.700;2023-03-23T00:12:28;4.73;;;3.30;;
12554;SDS011;6343;50.868;4.700;2023-03-23T00:15:02;5.37;;;2.60;;
12554;SDS011;6343;50.868;4.700;2023-03-23T00:17:28;3.77;;;2.83;;
12554;SDS011;6343;50.868;4.700;2023-03-23T00:19:55;3.70;;;2.50;;
12554;SDS011;6343;50.868;4.700;2023-03-23T00:22:21;5.57;;;2.57;;
12554;SDS011;6343;50.868;4.700;2023-03-23T00:24:50;3.53;;;2.60;;
12554;SDS011;6343;50.868;4.700;2023-03-23T00:27:17;9.40;;;2.83;;
12554;SDS011;6343;50.868;4.700;2023-03-23T00:29:43;5.90;;;2.53;;
12554;SDS011;6343;50.868;4.700;2023-03-23T00:32:10;5.87;;;3.00;;
12554;SDS011;6343;50.868;4.700;2023-03-23T00:34:39;3.77;;;2.40;;
12554;SDS011;6343;50.868;4.700;2023-03-23T00:37:08;3.00;;;2.70;;
12554;SDS011;6343;50.868;4.700;2023-03-23T00:39:34;3.60;;;2.37;;
12554;SDS011;6343;50.868;4.700;2023-03-23T00:42:04;2.87;;;2.00;;
12554;SDS011;6343;50.868;4.700;2023-03-23T00:44:31;4.37;;;2.47;;
12554;SDS011;6343;50.868;4.700;2023-03-23T00:46:59;2.80;;;2.43;;
12554;SDS011;6343;50.868;4.700;2023-03-23T00:49:26;2.73;;;2.43;;
12554;SDS011;6343;50.868;4.700;2023-03-23T00:51:56;4.20;;;2.00;;
12554;SDS011;6343;50.868;4.700;2023-03-23T00:54:23;4.00;;;2.67;;
12554;SDS011;6343;50.868;4.700;2023-03-23T00:56:50;4.10;;;2.67;;
12554;SDS011;6343;50.868;4.700;2023-03-23T00:59:16;4.33;;;2.67;;
12554;SDS011;6343;50.868;4.700;2023-03-23T01:01:42;2.63;;;2.27;;
12554;SDS011;6343;50.868;4.700;2023-03-23T01:04:08;4.87;;;2.33;;
12554;SDS011;6343;50.868;4.700;2023-03-23T01:06:37;5.63;;;2.83;;
12554;SDS011;6343;50.868;4.700;2023-03-23T01:09:07;4.73;;;2.60;;
12554;SDS011;6343;50.868;4.700;2023-03-23T01:11:34;5.23;;;2.40;;
12554;SDS011;6343;50.868;4.700;2023-03-23T01:14:00;3.00;;;2.50;;
12554;SDS011;6343;50.868;4.700;2023-03-23T01:16:26;3.57;;;2.43;;
12554;SDS011;6343;50.868;4.700;2023-03-23T01:18:52;3.50;;;2.80;;
12554;SDS011;6343;50.868;4.700;2023-03-23T01:21:19;5.60;;;2.80;;
12554;SDS011;6343;50.868;4.700;2023-03-23T01:23:46;4.67;;;2.70;;
12554;SDS011;6343;50.868;4.700;2023-03-23T01:26:16;4.50;;;2.30;;
12554;SDS011;6343;50.868;4.700;2023-03-23T01:28:43;3.40;;;2.40;;
12554;SDS011;6343;50.868;4.700;2023-03-23T01:31:10;3.20;;;2.50;;
12554;SDS011;6343;50.868;4.700;2023-03-23T01:33:37;3.30;;;2.43;;
12554;SDS011;6343;50.868;4.700;2023-03-23T01:36:04;4.53;;;2.40;;
12554;SDS011;6343;50.868;4.700;2023-03-23T01:38:31;2.40;;;2.20;;
12554;SDS011;6343;50.868;4.700;2023-03-23T01:40:57;2.97;;;2.27;;
12554;SDS011;6343;50.868;4.700;2023-03-23T01:43:24;3.40;;;2.53;;
12554;SDS011;6343;50.868;4.700;2023-03-23T01:45:50;5.90;;;2.20;;
12554;SDS011;6343;50.868;4.700;2023-03-23T01:48:35;6.03;;;2.90;;
12554;SDS011;6343;50.868;4.700;2023-03-23T01:51:04;2.93;;;2.63;;
12554;SDS011;6343;50.868;4.700;2023-03-23T01:53:40;3.07;;;2.40;;
12554;SDS011;6343;50.868;4.700;2023-03-23T01:56:08;4.43;;;2.50;;
12554;SDS011;6343;50.868;4.700;2023-03-23T01:58:36;3.53;;;2.50;;
12554;SDS011;6343;50.868;4.700;2023-03-23T02:01:07;3.13;;;2.50;;
12554;SDS011;6343;50.868;4.700;2023-03-23T02:03:37;3.07;;;2.53;;
12554;SDS011;6343;50.868;4.700;2023-03-23T02:06:03;4.17;;;2.80;;
12554;SDS011;6343;50.868;4.700;2023-03-23T02:08:29;4.00;;;2.57;;
12554;SDS011;6343;50.868;4.700;2023-03-23T02:10:57;3.93;;;2.57;;
12554;SDS011;6343;50.868;4.700;2023-03-23T02:13:23;6.20;;;2.30;;
12554;SDS011;6343;50.868;4.700;2023-03-23T02:18:23;6.97;;;2.43;;
12554;SDS011;6343;50.868;4.700;2023-03-23T02:25:55;3.03;;;2.03;;
12554;SDS011;6343;50.868;4.700;2023-03-23T02:39:16;9.83;;;2.77;;
12554;SDS011;6343;50.868;4.700;2023-03-23T02:41:47;4.30;;;2.10;;
12554;SDS011;6343;50.868;4.700;2023-03-23T02:44:15;2.63;;;2.00;;
12554;SDS011;6343;50.868;4.700;2023-03-23T02:46:42;4.53;;;2.13;;
12554;SDS011;6343;50.868;4.700;2023-03-23T02:49:10;6.10;;;2.67;;
12554;SDS011;6343;50.868;4.700;2023-03-23T02:51:37;4.53;;;2.10;;
12554;SDS011;6343;50.868;4.700;2023-03-23T02:54:04;3.80;;;1.97;;
12554;SDS011;6343;50.868;4.700;2023-03-23T02:56:30;4.07;;;1.90;;
12554;SDS011;6343;50.868;4.700;2023-03-23T02:58:58;3.17;;;2.10;;
12554;SDS011;6343;50.868;4.700;2023-03-23T03:03:54;3.30;;;1.90;;
12554;SDS011;6343;50.868;4.700;2023-03-23T03:06:32;4.33;;;2.07;;
12554;SDS011;6343;50.868;4.700;2023-03-23T03:09:02;3.17;;;1.90;;
12554;SDS011;6343;50.868;4.700;2023-03-23T03:11:30;4.40;;;2.00;;
12554;SDS011;6343;50.868;4.700;2023-03-23T03:14:10;4.53;;;2.00;;
12554;SDS011;6343;50.868;4.700;2023-03-23T03:21:30;3.53;;;1.97;;
12554;SDS011;6343;50.868;4.700;2023-03-23T03:23:58;2.53;;;1.57;;
12554;SDS011;6343;50.868;4.700;2023-03-23T03:26:26;3.03;;;1.87;;
12554;SDS011;6343;50.868;4.700;2023-03-23T03:28:53;5.50;;;2.23;;
12554;SDS011;6343;50.868;4.700;2023-03-23T03:31:21;3.80;;;1.90;;
12554;SDS011;6343;50.868;4.700;2023-03-23T03:33:48;2.80;;;2.10;;
12554;SDS011;6343;50.868;4.700;2023-03-23T03:36:21;2.03;;;1.53;;
12554;SDS011;6343;50.868;4.700;2023-03-23T03:38:50;4.00;;;1.97;;
12554;SDS011;6343;50.868;4.700;2023-03-23T03:41:16;7.10;;;1.80;;
12554;SDS011;6343;50.868;4.700;2023-03-23T03:43:43;3.27;;;2.00;;
12554;SDS011;6343;50.868;4.700;2023-03-23T03:46:09;3.83;;;2.20;;
12554;SDS011;6343;50.868;4.700;2023-03-23T03:48:35;4.10;;;2.10;;
12554;SDS011;6343;50.868;4.700;2023-03-23T03:51:01;4.97;;;2.00;;
12554;SDS011;6343;50.868;4.700;2023-03-23T03:53:27;3.73;;;2.17;;
12554;SDS011;6343;50.868;4.700;2023-03-23T03:55:55;3.77;;;1.83;;
12554;SDS011;6343;50.868;4.700;2023-03-23T03:58:24;3.43;;;1.63;;
12554;SDS011;6343;50.868;4.700;2023-03-23T04:00:50;2.90;;;1.60;;
12554;SDS011;6343;50.868;4.700;2023-03-23T04:03:18;5.97;;;1.90;;
12554;SDS011;6343;50.868;4.700;2023-03-23T04:05:44;4.13;;;1.80;;
12554;SDS011;6343;50.868;4.700;2023-03-23T04:08:11;4.03;;;2.03;;
12554;SDS011;6343;50.868;4.700;2023-03-23T04:10:37;3.63;;;1.67;;
12554;SDS011;6343;50.868;4.700;2023-03-23T04:13:04;4.40;;;1.83;;
12554;SDS011;6343;50.868;4.700;2023-03-23T04:15:30;3.67;;;2.20;;
12554;SDS011;6343;50.868;4.700;2023-03-23T04:17:56;3.33;;;1.67;;
12554;SDS011;6343;50.868;4.700;2023-03-23T04:20:23;3.40;;;2.23;;
12554;SDS011;6343;50.868;4.700;2023-03-23T04:22:50;4.77;;;2.23;;
12554;SDS011;6343;50.868;4.700;2023-03-23T04:25:19;4.93;;;1.77;;
12554;SDS011;6343;50.868;4.700;2023-03-23T04:27:46;4.37;;;1.60;;
12554;SDS011;6343;50.868;4.700;2023-03-23T04:30:17;4.37;;;1.90;;
12554;SDS011;6343;50.868;4.700;2023-03-23T04:32:44;3.00;;;1.50;;
12554;SDS011;6343;50.868;4.700;2023-03-23T04:35:12;3.63;;;1.63;;
12554;SDS011;6343;50.868;4.700;2023-03-23T04:37:39;3.50;;;2.00;;
12554;SDS011;6343;50.868;4.700;2023-03-23T04:40:06;4.20;;;2.00;;
12554;SDS011;6343;50.868;4.700;2023-03-23T04:42:34;4.60;;;1.60;;
12554;SDS011;6343;50.868;4.700;2023-03-23T04:45:02;4.47;;;1.97;;
12554;SDS011;6343;50.868;4.700;2023-03-23T04:47:31;2.57;;;1.40;;
12554;SDS011;6343;50.868;4.700;2023-03-23T04:49:58;4.47;;;1.57;;
12554;SDS011;6343;50.868;4.700;2023-03-23T04:52:25;5.97;;;1.80;;
12554;SDS011;6343;50.868;4.700;2023-03-23T04:54:53;4.33;;;1.60;;
12554;SDS011;6343;50.868;4.700;2023-03-23T04:57:21;6.90;;;1.53;;
12554;SDS011;6343;50.868;4.700;2023-03-23T04:59:47;7.40;;;1.87;;
12554;SDS011;6343;50.868;4.700;2023-03-23T05:02:13;6.63;;;1.53;;
12554;SDS011;6343;50.868;4.700;2023-03-23T05:04:40;4.20;;;2.03;;
12554;SDS011;6343;50.868;4.700;2023-03-23T05:07:06;5.13;;;1.53;;
12554;SDS011;6343;50.868;4.700;2023-03-23T05:09:33;7.53;;;1.63;;
12554;SDS011;6343;50.868;4.700;2023-03-23T05:12:06;3.87;;;1.60;;
12554;SDS011;6343;50.868;4.700;2023-03-23T05:14:33;4.40;;;1.40;;
12554;SDS011;6343;50.868;4.700;2023-03-23T05:16:59;4.40;;;1.30;;
12554;SDS011;6343;50.868;4.700;2023-03-23T05:19:26;6.33;;;1.30;;
12554;SDS011;6343;50.868;4.700;2023-03-23T05:21:53;3.80;;;1.40;;
12554;SDS011;6343;50.868;4.700;2023-03-23T05:24:19;3.43;;;1.47;;
12554;SDS011;6343;50.868;4.700;2023-03-23T05:26:45;4.90;;;1.33;;
12554;SDS011;6343;50.868;4.700;2023-03-23T05:29:13;3.63;;;1.20;;
12554;SDS011;6343;50.868;4.700;2023-03-23T05:31:40;6.77;;;1.50;;
12554;SDS011;6343;50.868;4.700;2023-03-23T05:34:07;3.27;;;1.10;;
12554;SDS011;6343;50.868;4.700;2023-03-23T05:36:33;4.47;;;1.67;;
12554;SDS011;6343;50.868;4.700;2023-03-23T05:38:59;7.53;;;1.60;;
12554;SDS011;6343;50.868;4.700;2023-03-23T05:41:28;2.93;;;1.40;;
12554;SDS011;6343;50.868;4.700;2023-03-23T05:43:54;3.10;;;1.50;;
12554;SDS011;6343;50.868;4.700;2023-03-23T05:46:21;6.40;;;2.07;;
12554;SDS011;6343;50.868;4.700;2023-03-23T05:48:47;2.93;;;1.20;;
12554;SDS011;6343;50.868;4.700;2023-03-23T05:51:13;6.67;;;1.70;;
12554;SDS011;6343;50.868;4.700;2023-03-23T05:53:39;3.83;;;1.70;;
12554;SDS011;6343;50.868;4.700;2023-03-23T05:56:06;3.03;;;1.70;;
12554;SDS011;6343;50.868;4.700;2023-03-23T05:58:32;4.43;;;1.63;;
12554;SDS011;6343;50.868;4.700;2023-03-23T06:00:58;4.67;;;1.50;;
12554;SDS011;6343;50.868;4.700;2023-03-23T06:03:24;5.23;;;1.70;;
12554;SDS011;6343;50.868;4.700;2023-03-23T06:05:50;3.20;;;1.50;;
12554;SDS011;6343;50.868;4.700;2023-03-23T06:08:17;4.30;;;1.20;;
12554;SDS011;6343;50.868;4.700;2023-03-23T06:10:44;7.90;;;1.70;;
12554;SDS011;6343;50.868;4.700;2023-03-23T06:13:10;4.23;;;1.50;;
12554;SDS011;6343;50.868;4.700;2023-03-23T06:15:36;4.47;;;1.40;;
12554;SDS011;6343;50.868;4.700;2023-03-23T06:18:02;12.27;;;1.83;;
12554;SDS011;6343;50.868;4.700;2023-03-23T06:20:29;3.60;;;1.40;;
12554;SDS011;6343;50.868;4.700;2023-03-23T06:22:55;4.23;;;1.50;;
12554;SDS011;6343;50.868;4.700;2023-03-23T06:25:21;4.20;;;1.20;;
12554;SDS011;6343;50.868;4.700;2023-03-23T06:27:48;4.40;;;1.30;;
12554;SDS011;6343;50.868;4.700;2023-03-23T06:30:17;6.17;;;1.77;;
12554;SDS011;6343;50.868;4.700;2023-03-23T06:32:43;4.50;;;1.40;;
12554;SDS011;6343;50.868;4.700;2023-03-23T06:35:12;3.83;;;1.53;;
12554;SDS011;6343;50.868;4.700;2023-03-23T06:37:38;5.37;;;1.70;;
12554;SDS011;6343;50.868;4.700;2023-03-23T06:40:05;3.57;;;1.40;;
12554;SDS011;6343;50.868;4.700;2023-03-23T06:42:32;7.97;;;1.33;;
12554;SDS011;6343;50.868;4.700;2023-03-23T06:44:58;5.27;;;2.00;;
12554;SDS011;6343;50.868;4.700;2023-03-23T06:47:26;4.03;;;1.70;;
12554;SDS011;6343;50.868;4.700;2023-03-23T06:49:54;5.63;;;1.50;;
12554;SDS011;6343;50.868;4.700;2023-03-23T06:52:21;5.70;;;2.13;;
12554;SDS011;6343;50.868;4.700;2023-03-23T06:54:48;6.10;;;2.00;;
12554;SDS011;6343;50.868;4.700;2023-03-23T06:57:14;7.23;;;2.00;;
12554;SDS011;6343;50.868;4.700;2023-03-23T06:59:41;5.93;;;1.40;;
12554;SDS011;6343;50.868;4.700;2023-03-23T07:02:08;2.97;;;1.23;;
12554;SDS011;6343;50.868;4.700;2023-03-23T07:04:34;4.70;;;1.50;;
12554;SDS011;6343;50.868;4.700;2023-03-23T07:07:01;5.87;;;1.90;;
12554;SDS011;6343;50.868;4.700;2023-03-23T07:09:27;6.87;;;1.47;;
12554;SDS011;6343;50.868;4.700;2023-03-23T07:11:53;4.83;;;1.30;;
12554;SDS011;6343;50.868;4.700;2023-03-23T07:14:19;7.07;;;1.80;;
12554;SDS011;6343;50.868;4.700;2023-03-23T07:16:46;3.33;;;1.20;;
12554;SDS011;6343;50.868;4.700;2023-03-23T07:19:13;5.37;;;1.60;;
12554;SDS011;6343;50.868;4.700;2023-03-23T07:21:40;6.33;;;1.50;;
12554;SDS011;6343;50.868;4.700;2023-03-23T07:24:06;3.53;;;1.83;;
12554;SDS011;6343;50.868;4.700;2023-03-23T07:26:36;5.73;;;1.40;;
12554;SDS011;6343;50.868;4.700;2023-03-23T07:29:02;5.40;;;1.53;;
12554;SDS011;6343;50.868;4.700;2023-03-23T07:31:28;3.60;;;1.80;;
12554;SDS011;6343;50.868;4.700;2023-03-23T07:33:55;6.10;;;1.77;;
12554;SDS011;6343;50.868;4.700;2023-03-23T07:36:21;3.67;;;1.70;;
12554;SDS011;6343;50.868;4.700;2023-03-23T07:38:47;5.80;;;1.87;;
12554;SDS011;6343;50.868;4.700;2023-03-23T07:41:14;4.43;;;1.80;;
12554;SDS011;6343;50.868;4.700;2023-03-23T07:43:40;3.37;;;1.30;;
12554;SDS011;6343;50.868;4.700;2023-03-23T07:46:06;3.27;;;1.20;;
12554;SDS011;6343;50.868;4.700;2023-03-23T07:48:32;2.97;;;0.90;;
12554;SDS011;6343;50.868;4.700;2023-03-23T07:50:58;3.27;;;1.27;;
12554;SDS011;6343;50.868;4.700;2023-03-23T07:53:25;2.27;;;1.13;;
12554;SDS011;6343;50.868;4.700;2023-03-23T07:55:52;2.37;;;0.90;;
12554;SDS011;6343;50.868;4.700;2023-03-23T07:58:18;2.00;;;1.00;;
12554;SDS011;6343;50.868;4.700;2023-03-23T08:00:48;3.40;;;1.23;;
12554;SDS011;6343;50.868;4.700;2023-03-23T08:03:15;4.00;;;1.50;;
12554;SDS011;6343;50.868;4.700;2023-03-23T08:05:41;2.87;;;1.20;;
12554;SDS011;6343;50.868;4.700;2023-03-23T08:08:08;5.27;;;1.40;;
12554;SDS011;6343;50.868;4.700;2023-03-23T08:10:34;4.80;;;1.50;;
12554;SDS011;6343;50.868;4.700;2023-03-23T08:13:00;2.97;;;1.20;;
12554;SDS011;6343;50.868;4.700;2023-03-23T08:15:27;4.03;;;1.20;;
12554;SDS011;6343;50.868;4.700;2023-03-23T08:17:53;4.10;;;1.13;;
12554;SDS011;6343;50.868;4.700;2023-03-23T08:20:20;3.77;;;1.50;;
12554;SDS011;6343;50.868;4.700;2023-03-23T08:22:54;2.30;;;1.43;;
12554;SDS011;6343;50.868;4.700;2023-03-23T08:25:20;2.23;;;1.50;;
12554;SDS011;6343;50.868;4.700;2023-03-23T08:27:46;1.63;;;1.27;;
12554;SDS011;6343;50.868;4.700;2023-03-23T08:30:17;4.07;;;1.60;;
12554;SDS011;6343;50.868;4.700;2023-03-23T08:32:44;4.03;;;1.30;;
12554;SDS011;6343;50.868;4.700;2023-03-23T08:35:11;4.23;;;1.50;;
12554;SDS011;6343;50.868;4.700;2023-03-23T08:37:38;1.40;;;0.97;;
12554;SDS011;6343;50.868;4.700;2023-03-23T08:40:07;1.50;;;0.83;;
12554;SDS011;6343;50.868;4.700;2023-03-23T08:42:40;2.73;;;0.80;;
12554;SDS011;6343;50.868;4.700;2023-03-23T08:45:07;1.93;;;1.00;;
12554;SDS011;6343;50.868;4.700;2023-03-23T08:47:34;2.87;;;1.20;;
12554;SDS011;6343;50.868;4.700;2023-03-23T08:50:01;3.80;;;1.50;;
12554;SDS011;6343;50.868;4.700;2023-03-23T08:52:27;2.03;;;0.80;;
12554;SDS011;6343;50.868;4.700;2023-03-23T08:54:54;2.27;;;0.90;;
12554;SDS011;6343;50.868;4.700;2023-03-23T08:57:21;3.03;;;1.10;;
12554;SDS011;6343;50.868;4.700;2023-03-23T08:59:48;2.80;;;0.97;;
12554;SDS011;6343;50.868;4.700;2023-03-23T09:02:15;1.63;;;0.80;;
12554;SDS011;6343;50.868;4.700;2023-03-23T09:04:41;5.83;;;1.20;;
12554;SDS011;6343;50.868;4.700;2023-03-23T09:07:10;2.40;;;1.20;;
12554;SDS011;6343;50.868;4.700;2023-03-23T09:09:37;2.70;;;0.97;;
12554;SDS011;6343;50.868;4.700;2023-03-23T09:12:07;2.00;;;0.90;;
12554;SDS011;6343;50.868;4.700;2023-03-23T09:14:34;1.73;;;0.97;;
12554;SDS011;6343;50.868;4.700;2023-03-23T09:17:00;4.10;;;0.90;;
12554;SDS011;6343;50.868;4.700;2023-03-23T09:19:28;3.23;;;1.13;;
12554;SDS011;6343;50.868;4.700;2023-03-23T09:21:54;3.53;;;1.00;;
12554;SDS011;6343;50.868;4.700;2023-03-23T09:24:20;2.97;;;0.93;;
12554;SDS011;6343;50.868;4.700;2023-03-23T09:26:47;3.57;;;0.93;;
12554;SDS011;6343;50.868;4.700;2023-03-23T09:29:13;1.50;;;0.90;;
12554;SDS011;6343;50.868;4.700;2023-03-23T09:31:39;3.30;;;1.13;;
12554;SDS011;6343;50.868;4.700;2023-03-23T09:34:07;2.50;;;1.10;;
12554;SDS011;6343;50.868;4.700;2023-03-23T09:36:35;3.33;;;1.10;;
12554;SDS011;6343;50.868;4.700;2023-03-23T09:39:01;3.07;;;1.00;;
12554;SDS011;6343;50.868;4.700;2023-03-23T09:44:17;2.80;;;0.80;;
12554;SDS011;6343;50.868;4.700;2023-03-23T09:47:03;2.60;;;1.33;;
12554;SDS011;6343;50.868;4.700;2023-03-23T09:49:41;4.87;;;1.10;;
12554;SDS011;6343;50.868;4.700;2023-03-23T09:52:10;3.67;;;1.23;;
12554;SDS011;6343;50.868;4.700;2023-03-23T09:57:05;2.27;;;1.10;;
12554;SDS011;6343;50.868;4.700;2023-03-23T10:02:19;1.37;;;0.90;;
12554;SDS011;6343;50.868;4.700;2023-03-23T10:04:49;3.67;;;0.93;;
12554;SDS011;6343;50.868;4.700;2023-03-23T10:07:18;3.13;;;1.23;;
12554;SDS011;6343;50.868;4.700;2023-03-23T10:09:45;4.93;;;0.77;;
12554;SDS011;6343;50.868;4.700;2023-03-23T10:15:02;2.30;;;1.10;;
12554;SDS011;6343;50.868;4.700;2023-03-23T10:17:35;3.50;;;1.13;;
12554;SDS011;6343;50.868;4.700;2023-03-23T10:20:13;2.73;;;1.03;;
12554;SDS011;6343;50.868;4.700;2023-03-23T10:25:31;2.77;;;1.10;;
12554;SDS011;6343;50.868;4.700;2023-03-23T10:28:00;3.33;;;1.33;;
12554;SDS011;6343;50.868;4.700;2023-03-23T10:30:33;1.80;;;1.20;;
12554;SDS011;6343;50.868;4.700;2023-03-23T10:36:02;3.00;;;1.27;;
12554;SDS011;6343;50.868;4.700;2023-03-23T10:38:29;1.50;;;1.20;;
12554;SDS011;6343;50.868;4.700;2023-03-23T10:41:00;2.73;;;1.20;;
12554;SDS011;6343;50.868;4.700;2023-03-23T10:43:26;2.07;;;1.20;;
12554;SDS011;6343;50.868;4.700;2023-03-23T10:46:04;3.73;;;2.03;;
12554;SDS011;6343;50.868;4.700;2023-03-23T10:48:33;4.33;;;1.57;;
12554;SDS011;6343;50.868;4.700;2023-03-23T10:51:03;1.67;;;1.10;;
12554;SDS011;6343;50.868;4.700;2023-03-23T10:53:34;3.57;;;1.40;;
12554;SDS011;6343;50.868;4.700;2023-03-23T10:56:01;2.47;;;1.40;;
12554;SDS011;6343;50.868;4.700;2023-03-23T10:58:34;4.50;;;1.90;;
12554;SDS011;6343;50.868;4.700;2023-03-23T11:01:02;2.40;;;1.33;;
12554;SDS011;6343;50.868;4.700;2023-03-23T11:03:38;3.50;;;1.37;;
12554;SDS011;6343;50.868;4.700;2023-03-23T11:06:06;4.20;;;2.00;;
12554;SDS011;6343;50.868;4.700;2023-03-23T11:08:35;3.10;;;1.80;;
12554;SDS011;6343;50.868;4.700;2023-03-23T11:11:09;2.47;;;1.50;;
12554;SDS011;6343;50.868;4.700;2023-03-23T11:13:38;5.40;;;1.80;;
12554;SDS011;6343;50.868;4.700;2023-03-23T11:16:05;7.33;;;2.33;;
12554;SDS011;6343;50.868;4.700;2023-03-23T11:18:36;4.20;;;1.93;;
12554;SDS011;6343;50.868;4.700;2023-03-23T11:21:03;4.23;;;2.00;;
12554;SDS011;6343;50.868;4.700;2023-03-23T11:23:34;8.23;;;3.10;;
12554;SDS011;6343;50.868;4.700;2023-03-23T11:26:15;7.53;;;3.20;;
12554;SDS011;6343;50.868;4.700;2023-03-23T11:28:43;5.30;;;3.33;;
12554;SDS011;6343;50.868;4.700;2023-03-23T11:31:11;5.37;;;3.70;;
12554;SDS011;6343;50.868;4.700;2023-03-23T11:33:54;6.17;;;3.07;;
12554;SDS011;6343;50.868;4.700;2023-03-23T11:36:27;5.37;;;4.00;;
12554;SDS011;6343;50.868;4.700;2023-03-23T11:38:54;7.00;;;3.90;;
12554;SDS011;6343;50.868;4.700;2023-03-23T11:41:22;6.83;;;3.43;;
12554;SDS011;6343;50.868;4.700;2023-03-23T11:43:51;8.03;;;3.33;;
12554;SDS011;6343;50.868;4.700;2023-03-23T11:48:57;6.30;;;2.87;;
12554;SDS011;6343;50.868;4.700;2023-03-23T11:54:20;5.77;;;2.40;;
12554;SDS011;6343;50.868;4.700;2023-03-23T11:56:49;6.73;;;2.37;;
12554;SDS011;6343;50.868;4.700;2023-03-23T11:59:26;7.33;;;1.93;;
12554;SDS011;6343;50.868;4.700;2023-03-23T12:01:54;5.83;;;1.90;;
12554;SDS011;6343;50.868;4.700;2023-03-23T12:20:19;4.43;;;1.70;;
12554;SDS011;6343;50.868;4.700;2023-03-23T12:22:53;6.83;;;1.80;;
12554;SDS011;6343;50.868;4.700;2023-03-23T12:28:03;11.50;;;1.83;;
12554;SDS011;6343;50.868;4.700;2023-03-23T12:43:22;5.30;;;1.60;;
12554;SDS011;6343;50.868;4.700;2023-03-23T12:48:37;8.53;;;2.20;;
12554;SDS011;6343;50.868;4.700;2023-03-23T12:51:10;6.43;;;2.00;;
12554;SDS011;6343;50.868;4.700;2023-03-23T12:54:23;4.20;;;2.30;;
12554;SDS011;6343;50.868;4.700;2023-03-23T12:59:48;5.97;;;2.53;;
12554;SDS011;6343;50.868;4.700;2023-03-23T13:01:47;4.63;;;2.57;;
12554;SDS011;6343;50.868;4.700;2023-03-23T13:04:16;12.70;;;2.90;;
12554;SDS011;6343;50.868;4.700;2023-03-23T13:06:44;5.70;;;2.77;;
12554;SDS011;6343;50.868;4.700;2023-03-23T13:11:56;7.43;;;2.73;;
12554;SDS011;6343;50.868;4.700;2023-03-23T13:14:47;5.97;;;2.23;;
12554;SDS011;6343;50.868;4.700;2023-03-23T13:22:37;7.97;;;2.37;;
12554;SDS011;6343;50.868;4.700;2023-03-23T13:25:13;9.37;;;2.77;;
12554;SDS011;6343;50.868;4.700;2023-03-23T13:27:42;7.60;;;2.80;;
12554;SDS011;6343;50.868;4.700;2023-03-23T13:30:19;5.87;;;2.20;;
12554;SDS011;6343;50.868;4.700;2023-03-23T13:32:46;6.17;;;2.57;;
12554;SDS011;6343;50.868;4.700;2023-03-23T13:35:13;4.47;;;2.37;;
12554;SDS011;6343;50.868;4.700;2023-03-23T13:37:42;7.87;;;2.90;;
12554;SDS011;6343;50.868;4.700;2023-03-23T13:42:47;7.70;;;2.40;;
12554;SDS011;6343;50.868;4.700;2023-03-23T13:47:49;11.03;;;2.43;;
12554;SDS011;6343;50.868;4.700;2023-03-23T13:57:56;6.07;;;2.53;;
12554;SDS011;6343;50.868;4.700;2023-03-23T14:08:11;9.40;;;2.77;;
12554;SDS011;6343;50.868;4.700;2023-03-23T14:13:14;8.60;;;2.30;;
12554;SDS011;6343;50.868;4.700;2023-03-23T14:15:42;11.70;;;2.40;;
12554;SDS011;6343;50.868;4.700;2023-03-23T14:18:12;6.23;;;2.13;;
12554;SDS011;6343;50.868;4.700;2023-03-23T14:20:39;5.23;;;2.13;;
12554;SDS011;6343;50.868;4.700;2023-03-23T14:23:12;6.87;;;1.90;;
12554;SDS011;6343;50.868;4.700;2023-03-23T14:25:40;8.33;;;2.30;;
12554;SDS011;6343;50.868;4.700;2023-03-23T14:28:16;7.30;;;2.17;;
12554;SDS011;6343;50.868;4.700;2023-03-23T14:30:42;5.30;;;1.60;;
12554;SDS011;6343;50.868;4.700;2023-03-23T14:33:10;6.07;;;2.53;;
12554;SDS011;6343;50.868;4.700;2023-03-23T14:35:40;6.63;;;1.83;;
12554;SDS011;6343;50.868;4.700;2023-03-23T14:38:10;4.47;;;2.03;;
12554;SDS011;6343;50.868;4.700;2023-03-23T14:40:37;4.70;;;2.20;;
12554;SDS011;6343;50.868;4.700;2023-03-23T14:43:03;6.97;;;2.03;;
12554;SDS011;6343;50.868;4.700;2023-03-23T14:45:30;5.23;;;2.43;;
12554;SDS011;6343;50.868;4.700;2023-03-23T14:47:57;5.00;;;2.20;;
12554;SDS011;6343;50.868;4.700;2023-03-23T14:50:29;11.43;;;3.33;;
12554;SDS011;6343;50.868;4.700;2023-03-23T14:53:07;7.47;;;2.20;;
12554;SDS011;6343;50.868;4.700;2023-03-23T14:55:35;7.27;;;2.30;;
12554;SDS011;6343;50.868;4.700;2023-03-23T14:58:05;6.13;;;2.50;;
12554;SDS011;6343;50.868;4.700;2023-03-23T15:00:33;7.00;;;2.70;;
12554;SDS011;6343;50.868;4.700;2023-03-23T15:02:59;9.97;;;2.70;;
12554;SDS011;6343;50.868;4.700;2023-03-23T15:05:34;8.03;;;2.87;;
12554;SDS011;6343;50.868;4.700;2023-03-23T15:08:06;5.80;;;2.47;;
12554;SDS011;6343;50.868;4.700;2023-03-23T15:10:33;6.07;;;2.27;;
12554;SDS011;6343;50.868;4.700;2023-03-23T15:13:00;5.20;;;2.53;;
12554;SDS011;6343;50.868;4.700;2023-03-23T15:15:27;5.33;;;2.33;;
12554;SDS011;6343;50.868;4.700;2023-03-23T15:17:53;7.17;;;2.70;;
12554;SDS011;6343;50.868;4.700;2023-03-23T15:20:30;4.60;;;2.00;;
12554;SDS011;6343;50.868;4.700;2023-03-23T15:23:04;7.37;;;2.00;;
12554;SDS011;6343;50.868;4.700;2023-03-23T15:27:33;4.97;;;1.73;;
12554;SDS011;6343;50.868;4.700;2023-03-23T15:30:11;7.53;;;2.80;;
12554;SDS011;6343;50.868;4.700;2023-03-23T15:32:38;6.53;;;2.00;;
12554;SDS011;6343;50.868;4.700;2023-03-23T15:35:11;6.83;;;2.10;;
12554;SDS011;6343;50.868;4.700;2023-03-23T15:38:14;7.40;;;2.37;;
12554;SDS011;6343;50.868;4.700;2023-03-23T15:40:37;5.30;;;1.97;;
12554;SDS011;6343;50.868;4.700;2023-03-23T15:43:26;7.73;;;2.37;;
12554;SDS011;6343;50.868;4.700;2023-03-23T15:48:19;6.87;;;1.93;;
12554;SDS011;6343;50.868;4.700;2023-03-23T15:50:45;5.77;;;2.33;;
12554;SDS011;6343;50.868;4.700;2023-03-23T15:55:42;7.47;;;2.37;;
12554;SDS011;6343;50.868;4.700;2023-03-23T15:58:09;8.07;;;2.07;;
12554;SDS011;6343;50.868;4.700;2023-03-23T16:00:36;6.07;;;2.50;;
12554;SDS011;6343;50.868;4.700;2023-03-23T16:03:04;7.07;;;2.67;;
12554;SDS011;6343;50.868;4.700;2023-03-23T16:05:30;5.27;;;2.03;;
12554;SDS011;6343;50.868;4.700;2023-03-23T16:07:57;9.07;;;2.37;;
12554;SDS011;6343;50.868;4.700;2023-03-23T16:10:23;4.97;;;2.10;;
12554;SDS011;6343;50.868;4.700;2023-03-23T16:12:50;8.77;;;2.67;;
12554;SDS011;6343;50.868;4.700;2023-03-23T16:15:17;6.83;;;2.63;;
12554;SDS011;6343;50.868;4.700;2023-03-23T16:17:43;6.37;;;2.43;;
12554;SDS011;6343;50.868;4.700;2023-03-23T16:20:17;7.27;;;2.37;;
12554;SDS011;6343;50.868;4.700;2023-03-23T16:22:44;7.70;;;2.43;;
12554;SDS011;6343;50.868;4.700;2023-03-23T16:25:11;7.87;;;2.60;;
12554;SDS011;6343;50.868;4.700;2023-03-23T16:27:38;6.37;;;2.53;;
12554;SDS011;6343;50.868;4.700;2023-03-23T16:30:15;3.93;;;1.87;;
12554;SDS011;6343;50.868;4.700;2023-03-23T16:32:41;6.63;;;2.00;;
12554;SDS011;6343;50.868;4.700;2023-03-23T16:35:08;5.90;;;2.00;;
12554;SDS011;6343;50.868;4.700;2023-03-23T16:37:34;6.27;;;2.20;;
12554;SDS011;6343;50.868;4.700;2023-03-23T16:40:01;7.53;;;2.20;;
12554;SDS011;6343;50.868;4.700;2023-03-23T16:42:27;9.77;;;2.50;;
12554;SDS011;6343;50.868;4.700;2023-03-23T16:44:53;7.87;;;2.10;;
12554;SDS011;6343;50.868;4.700;2023-03-23T16:47:20;5.10;;;2.10;;
12554;SDS011;6343;50.868;4.700;2023-03-23T16:51:16;5.73;;;1.47;;
12554;SDS011;6343;50.868;4.700;2023-03-23T16:53:42;5.90;;;1.80;;
12554;SDS011;6343;50.868;4.700;2023-03-23T16:56:08;6.43;;;1.70;;
12554;SDS011;6343;50.868;4.700;2023-03-23T16:58:34;5.10;;;1.27;;
12554;SDS011;6343;50.868;4.700;2023-03-23T17:01:01;5.67;;;1.60;;
12554;SDS011;6343;50.868;4.700;2023-03-23T17:03:27;6.33;;;2.03;;
12554;SDS011;6343;50.868;4.700;2023-03-23T17:05:53;6.03;;;1.50;;
12554;SDS011;6343;50.868;4.700;2023-03-23T17:08:19;3.80;;;1.90;;
12554;SDS011;6343;50.868;4.700;2023-03-23T17:10:46;8.57;;;2.10;;
12554;SDS011;6343;50.868;4.700;2023-03-23T17:13:12;17.47;;;2.70;;